Time;durP1;ratioP1;P1;durP2;ratioP2;P2;SDS_P1;SDS_P2;PMS_P1;PMS_P2;Temp;Humidity;BMP_temperature;BMP_pressure;BME280_temperature;BME280_humidity;BME280_pressure;Samples;Min_cycle;Max_cycle;Signal;HPM_P1;HPM_P2
2021/10/06 00:02:18;;;;;;;0.10;0.10;;;;;;;;;;10449897;28;20414;-68
2021/10/06 00:07:22;;;;;;;0.10;0.10;;;;;;;;;;10458033;28;20736;-67
2021/10/06 00:12:25;;;;;;;0.10;0.10;;;;;;;;;;10453350;28;20044;-67
2021/10/06 00:17:28;;;;;;;0.10;0.10;;;;;;;;;;10462447;28;20051;-68
2021/10/06 00:22:32;;;;;;;0.08;0.08;;;;;;;;;;10460224;28;20383;-67
2021/10/06 00:27:35;;;;;;;0.10;0.10;;;;;;;;;;10454900;28;20040;-67
2021/10/06 00:32:37;;;;;;;0.00;0.00;;;;;;;;;;10430676;28;20037;-67
2021/10/06 00:37:42;;;;;;;0.05;0.05;;;;;;;;;;10457784;28;20142;-67
2021/10/06 00:42:44;;;;;;;0.10;0.10;;;;;;;;;;10451057;28;20045;-67
2021/10/06 00:47:47;;;;;;;0.10;0.10;;;;;;;;;;10456920;28;20059;-67
2021/10/06 00:52:51;;;;;;;0.10;0.10;;;;;;;;;;10453643;28;20041;-67
2021/10/06 00:57:54;;;;;;;0.10;0.10;;;;;;;;;;10456707;28;20072;-67
2021/10/06 01:02:57;;;;;;;0.10;0.10;;;;;;;;;;10457644;28;20052;-67
2021/10/06 01:08:02;;;;;;;0.10;0.10;;;;;;;;;;10457969;28;20053;-67
2021/10/06 01:13:06;;;;;;;0.10;0.10;;;;;;;;;;10444312;28;20094;-67
2021/10/06 01:18:08;;;;;;;0.10;0.10;;;;;;;;;;10457021;28;20042;-64
2021/10/06 01:23:13;;;;;;;0.20;0.20;;;;;;;;;;10445952;28;20048;-64
2021/10/06 01:28:16;;;;;;;0.10;0.10;;;;;;;;;;10454069;28;20406;-65
2021/10/06 01:33:19;;;;;;;0.10;0.10;;;;;;;;;;10456702;28;20040;-65
2021/10/06 01:38:23;;;;;;;0.10;0.10;;;;;;;;;;10443452;28;20048;-65
2021/10/06 01:43:26;;;;;;;0.35;0.15;;;;;;;;;;10462391;28;20047;-65
2021/10/06 01:48:28;;;;;;;0.10;0.10;;;;;;;;;;10457490;28;20048;-65
2021/10/06 01:53:36;;;;;;;0.10;0.10;;;;;;;;;;10458663;28;20068;-65
2021/10/06 01:58:39;;;;;;;0.10;0.10;;;;;;;;;;10461587;28;20396;-65
2021/10/06 02:03:42;;;;;;;0.10;0.10;;;;;;;;;;10454030;28;20045;-65
2021/10/06 02:08:46;;;;;;;0.10;0.10;;;;;;;;;;10439893;28;20134;-65
2021/10/06 02:13:49;;;;;;;0.10;0.10;;;;;;;;;;10449343;28;20040;-64
2021/10/06 02:18:52;;;;;;;0.15;0.10;;;;;;;;;;10461306;28;20046;-65
2021/10/06 02:24:09;;;;;;;0.10;0.10;;;;;;;;;;10467331;28;20044;-64
2021/10/06 02:29:12;;;;;;;0.10;0.10;;;;;;;;;;10441361;28;20044;-65
2021/10/06 02:34:14;;;;;;;0.10;0.10;;;;;;;;;;10445724;28;20139;-65
2021/10/06 02:39:19;;;;;;;0.00;0.00;;;;;;;;;;10453783;28;20570;-65
2021/10/06 02:44:21;;;;;;;0.10;0.10;;;;;;;;;;10454478;28;20029;-64
2021/10/06 02:49:24;;;;;;;0.10;0.10;;;;;;;;;;10458221;28;20045;-64
2021/10/06 02:54:28;;;;;;;0.15;0.10;;;;;;;;;;10452986;28;20116;-64
2021/10/06 02:59:31;;;;;;;0.10;0.10;;;;;;;;;;10442540;28;20036;-65
2021/10/06 03:04:33;;;;;;;0.00;0.00;;;;;;;;;;10458480;28;20052;-65
2021/10/06 03:09:41;;;;;;;0.10;0.10;;;;;;;;;;10466570;28;20150;-65
2021/10/06 03:14:44;;;;;;;0.10;0.10;;;;;;;;;;10448981;28;20033;-65
2021/10/06 03:19:47;;;;;;;0.10;0.10;;;;;;;;;;10455304;28;20040;-64
2021/10/06 03:24:51;;;;;;;0.10;0.10;;;;;;;;;;10458035;28;20139;-65
2021/10/06 03:29:54;;;;;;;0.10;0.10;;;;;;;;;;10455421;28;20040;-65
2021/10/06 03:34:57;;;;;;;0.10;0.10;;;;;;;;;;10450433;28;20632;-64
2021/10/06 03:40:01;;;;;;;0.10;0.10;;;;;;;;;;10447898;28;20501;-65
2021/10/06 03:45:04;;;;;;;0.45;0.17;;;;;;;;;;10468498;28;20046;-64
2021/10/06 03:50:08;;;;;;;0.10;0.10;;;;;;;;;;10459858;28;20040;-65
2021/10/06 03:55:13;;;;;;;0.10;0.10;;;;;;;;;;10459533;28;20410;-64
2021/10/06 04:00:16;;;;;;;0.08;0.08;;;;;;;;;;10453981;28;20495;-65
2021/10/06 04:05:19;;;;;;;0.10;0.10;;;;;;;;;;10461992;28;20057;-64
2021/10/06 04:10:24;;;;;;;0.10;0.10;;;;;;;;;;10451791;28;20048;-65
2021/10/06 04:15:27;;;;;;;0.10;0.10;;;;;;;;;;10470290;28;20094;-64
2021/10/06 04:20:30;;;;;;;0.10;0.10;;;;;;;;;;10459682;28;20041;-65
2021/10/06 04:25:36;;;;;;;0.10;0.10;;;;;;;;;;10435152;28;20064;-64
2021/10/06 04:30:39;;;;;;;0.10;0.10;;;;;;;;;;10460093;28;20041;-64
2021/10/06 04:35:41;;;;;;;0.10;0.10;;;;;;;;;;10459534;28;21838;-63
2021/10/06 04:40:47;;;;;;;0.10;0.10;;;;;;;;;;10464138;28;20505;-64
2021/10/06 04:45:49;;;;;;;0.10;0.10;;;;;;;;;;10436504;28;20159;-63
2021/10/06 04:50:52;;;;;;;0.10;0.10;;;;;;;;;;10451809;28;20143;-64
2021/10/06 04:55:56;;;;;;;0.20;0.20;;;;;;;;;;10463600;28;21715;-65
2021/10/06 05:01:00;;;;;;;0.10;0.10;;;;;;;;;;10460505;28;20471;-64
2021/10/06 05:06:04;;;;;;;0.30;0.10;;;;;;;;;;10463937;28;20051;-64
2021/10/06 05:11:09;;;;;;;0.10;0.10;;;;;;;;;;10471494;28;20056;-64
2021/10/06 05:16:11;;;;;;;0.30;0.20;;;;;;;;;;10462928;28;20139;-65
2021/10/06 05:21:14;;;;;;;0.10;0.10;;;;;;;;;;10456693;28;20056;-65
2021/10/06 05:26:18;;;;;;;0.10;0.10;;;;;;;;;;10462930;28;20094;-65
2021/10/06 05:31:21;;;;;;;0.20;0.20;;;;;;;;;;10462748;28;20050;-65
2021/10/06 05:36:24;;;;;;;0.10;0.10;;;;;;;;;;10449428;28;20052;-65
2021/10/06 05:41:28;;;;;;;0.28;0.10;;;;;;;;;;10435784;28;20032;-64
2021/10/06 05:46:31;;;;;;;0.10;0.10;;;;;;;;;;10447663;28;20051;-64
2021/10/06 05:51:34;;;;;;;0.10;0.10;;;;;;;;;;10440588;28;20088;-64
2021/10/06 05:56:39;;;;;;;0.28;0.10;;;;;;;;;;10462911;28;20403;-64
2021/10/06 06:01:42;;;;;;;0.10;0.10;;;;;;;;;;10487202;28;20123;-63
2021/10/06 06:06:44;;;;;;;0.10;0.10;;;;;;;;;;10465223;28;20045;-62
2021/10/06 06:11:49;;;;;;;0.10;0.10;;;;;;;;;;10482283;28;20037;-63
2021/10/06 06:16:51;;;;;;;0.10;0.10;;;;;;;;;;10488209;28;20062;-63
2021/10/06 06:21:54;;;;;;;0.10;0.10;;;;;;;;;;10476158;28;20324;-63
2021/10/06 06:26:58;;;;;;;0.10;0.10;;;;;;;;;;10480291;28;20509;-64
2021/10/06 06:32:01;;;;;;;0.13;0.13;;;;;;;;;;10476823;28;20589;-64
2021/10/06 06:37:04;;;;;;;0.10;0.10;;;;;;;;;;10480866;28;20147;-65
2021/10/06 06:42:08;;;;;;;0.10;0.10;;;;;;;;;;10500086;28;20063;-64
2021/10/06 06:47:11;;;;;;;0.10;0.10;;;;;;;;;;10495984;28;20046;-64
2021/10/06 06:52:13;;;;;;;0.10;0.10;;;;;;;;;;10480499;28;20399;-64
2021/10/06 06:57:17;;;;;;;0.00;0.00;;;;;;;;;;10477731;28;20056;-64
2021/10/06 07:02:20;;;;;;;0.10;0.10;;;;;;;;;;10480449;28;20807;-64
2021/10/06 07:07:23;;;;;;;0.20;0.10;;;;;;;;;;10489921;28;20461;-64
2021/10/06 07:12:27;;;;;;;0.75;0.10;;;;;;;;;;10494244;28;20053;-64
2021/10/06 07:17:30;;;;;;;0.22;0.10;;;;;;;;;;10483728;28;20501;-64
2021/10/06 07:22:34;;;;;;;0.10;0.10;;;;;;;;;;10494010;28;20044;-64
2021/10/06 07:27:38;;;;;;;0.10;0.10;;;;;;;;;;10478172;28;20055;-64
2021/10/06 07:32:41;;;;;;;0.10;0.10;;;;;;;;;;10494896;28;20055;-64
2021/10/06 07:37:44;;;;;;;0.10;0.10;;;;;;;;;;10491856;28;20051;-64
2021/10/06 07:42:48;;;;;;;0.10;0.10;;;;;;;;;;10463806;28;20044;-65
2021/10/06 07:47:51;;;;;;;0.10;0.10;;;;;;;;;;10484930;28;20483;-65
2021/10/06 07:52:54;;;;;;;0.10;0.10;;;;;;;;;;10476814;28;20041;-64
2021/10/06 07:57:58;;;;;;;0.10;0.10;;;;;;;;;;10476609;28;20267;-65
2021/10/06 08:03:01;;;;;;;0.10;0.10;;;;;;;;;;10437871;28;20487;-64
2021/10/06 08:08:04;;;;;;;0.10;0.10;;;;;;;;;;10456356;28;20420;-65
2021/10/06 08:13:09;;;;;;;0.30;0.30;;;;;;;;;;10479546;28;20044;-64
2021/10/06 08:18:17;;;;;;;0.13;0.10;;;;;;;;;;10497509;28;20057;-65
2021/10/06 08:23:20;;;;;;;0.10;0.10;;;;;;;;;;10480675;28;20045;-65
2021/10/06 08:28:26;;;;;;;0.10;0.10;;;;;;;;;;10485699;28;20304;-65
2021/10/06 08:33:28;;;;;;;0.10;0.10;;;;;;;;;;10462263;28;20062;-64
2021/10/06 08:38:31;;;;;;;0.10;0.10;;;;;;;;;;10493969;28;20044;-65
2021/10/06 08:43:37;;;;;;;0.10;0.10;;;;;;;;;;10479049;28;20044;-65
2021/10/06 08:48:40;;;;;;;0.10;0.10;;;;;;;;;;10471378;28;20052;-65
2021/10/06 08:53:42;;;;;;;0.00;0.00;;;;;;;;;;10474878;28;20033;-64
2021/10/06 08:58:46;;;;;;;0.13;0.05;;;;;;;;;;10465050;28;20080;-64
2021/10/06 09:03:54;;;;;;;0.10;0.10;;;;;;;;;;10466156;28;20053;-64
2021/10/06 09:08:56;;;;;;;0.10;0.10;;;;;;;;;;10457261;28;20106;-64
2021/10/06 09:14:02;;;;;;;0.10;0.10;;;;;;;;;;10492296;28;20074;-64
2021/10/06 09:19:05;;;;;;;0.05;0.05;;;;;;;;;;10494989;28;20054;-66
2021/10/06 09:24:11;;;;;;;0.00;0.00;;;;;;;;;;10500105;28;20040;-64
2021/10/06 09:29:22;;;;;;;0.10;0.10;;;;;;;;;;10476428;28;20158;-64
2021/10/06 09:34:24;;;;;;;0.63;0.10;;;;;;;;;;10489297;28;20044;-64
2021/10/06 09:39:28;;;;;;;0.00;0.00;;;;;;;;;;10500491;28;20046;-64
2021/10/06 09:44:32;;;;;;;0.10;0.10;;;;;;;;;;10492387;28;20062;-64
2021/10/06 09:49:36;;;;;;;0.10;0.10;;;;;;;;;;10493802;28;20131;-63
2021/10/06 09:54:39;;;;;;;0.08;0.08;;;;;;;;;;10500059;28;20421;-63
2021/10/06 09:59:43;;;;;;;0.10;0.10;;;;;;;;;;10492373;28;20049;-63
2021/10/06 10:04:46;;;;;;;0.10;0.10;;;;;;;;;;10499044;28;20048;-64
2021/10/06 10:09:49;;;;;;;0.10;0.10;;;;;;;;;;10480483;28;20048;-64
2021/10/06 10:14:54;;;;;;;0.10;0.10;;;;;;;;;;10488461;28;20036;-65
2021/10/06 10:19:58;;;;;;;0.10;0.10;;;;;;;;;;10503666;28;20083;-65
2021/10/06 10:25:15;;;;;;;0.05;0.05;;;;;;;;;;10479301;28;20056;-65
2021/10/06 10:30:21;;;;;;;0.10;0.10;;;;;;;;;;10503501;28;20044;-65
2021/10/06 10:35:38;;;;;;;0.10;0.10;;;;;;;;;;10478306;28;20042;-65
2021/10/06 10:40:42;;;;;;;0.10;0.10;;;;;;;;;;10485020;28;20397;-65
2021/10/06 10:45:51;;;;;;;0.00;0.00;;;;;;;;;;10479046;28;20037;-65
2021/10/06 10:51:22;;;;;;;0.10;0.10;;;;;;;;;;10492580;28;20044;-65
2021/10/06 10:56:26;;;;;;;0.10;0.10;;;;;;;;;;10450628;28;20063;-65
2021/10/06 11:01:39;;;;;;;0.10;0.10;;;;;;;;;;10488687;28;20040;-65
2021/10/06 11:06:43;;;;;;;0.10;0.10;;;;;;;;;;10484670;28;20052;-64
2021/10/06 11:11:46;;;;;;;0.10;0.10;;;;;;;;;;10493716;28;20055;-64
2021/10/06 11:17:10;;;;;;;0.00;0.00;;;;;;;;;;10497435;28;20047;-64
2021/10/06 11:22:40;;;;;;;0.00;0.00;;;;;;;;;;10469301;28;20055;-64
2021/10/06 11:27:46;;;;;;;0.10;0.10;;;;;;;;;;10437642;28;20044;-64
2021/10/06 11:32:52;;;;;;;0.08;0.03;;;;;;;;;;10500172;28;20506;-64
2021/10/06 11:38:07;;;;;;;0.15;0.10;;;;;;;;;;10469819;28;20041;-64
2021/10/06 11:43:10;;;;;;;0.10;0.10;;;;;;;;;;10503488;28;20044;-63
2021/10/06 11:48:14;;;;;;;0.10;0.10;;;;;;;;;;10478286;28;20056;-63
2021/10/06 11:53:17;;;;;;;0.10;0.10;;;;;;;;;;10500640;28;20071;-64
2021/10/06 11:58:32;;;;;;;0.10;0.10;;;;;;;;;;10503978;28;20481;-64
2021/10/06 12:03:37;;;;;;;0.13;0.13;;;;;;;;;;10511140;28;20048;-63
2021/10/06 12:08:40;;;;;;;0.10;0.10;;;;;;;;;;10495210;28;20059;-64
2021/10/06 12:13:43;;;;;;;0.10;0.10;;;;;;;;;;10498872;28;20037;-64
2021/10/06 12:18:58;;;;;;;0.03;0.03;;;;;;;;;;10496925;28;20052;-65
2021/10/06 12:24:01;;;;;;;0.10;0.10;;;;;;;;;;10501788;28;20115;-65
2021/10/06 12:29:05;;;;;;;0.40;0.10;;;;;;;;;;10493559;28;20155;-65
2021/10/06 12:34:10;;;;;;;0.10;0.10;;;;;;;;;;10471997;28;20768;-63
2021/10/06 12:39:15;;;;;;;0.13;0.10;;;;;;;;;;10495997;28;20044;-64
2021/10/06 12:44:19;;;;;;;0.10;0.10;;;;;;;;;;10499029;28;20049;-64
2021/10/06 12:49:24;;;;;;;0.10;0.10;;;;;;;;;;10494221;28;20561;-66
2021/10/06 12:54:43;;;;;;;0.00;0.00;;;;;;;;;;10500768;28;20796;-64
2021/10/06 12:59:46;;;;;;;0.10;0.10;;;;;;;;;;10489683;28;20819;-63
2021/10/06 13:04:50;;;;;;;0.10;0.10;;;;;;;;;;10500202;28;20036;-65
2021/10/06 13:09:53;;;;;;;0.00;0.00;;;;;;;;;;10500562;28;20051;-64
2021/10/06 13:14:56;;;;;;;0.10;0.10;;;;;;;;;;10502956;28;20043;-64
2021/10/06 13:20:00;;;;;;;0.10;0.10;;;;;;;;;;10502246;28;20044;-64
2021/10/06 13:25:04;;;;;;;0.10;0.10;;;;;;;;;;10506610;28;20847;-65
2021/10/06 13:30:07;;;;;;;0.10;0.10;;;;;;;;;;10505670;28;20056;-64
2021/10/06 13:35:12;;;;;;;0.00;0.00;;;;;;;;;;10504568;28;20047;-64
2021/10/06 13:40:15;;;;;;;0.00;0.00;;;;;;;;;;10502315;28;20092;-63
2021/10/06 13:45:18;;;;;;;0.10;0.10;;;;;;;;;;10476180;28;20052;-66
2021/10/06 13:50:23;;;;;;;0.00;0.00;;;;;;;;;;10499404;28;20468;-64
2021/10/06 13:55:27;;;;;;;0.10;0.10;;;;;;;;;;10503269;28;20032;-68
2021/10/06 14:00:31;;;;;;;0.00;0.00;;;;;;;;;;10496115;28;20048;-66
2021/10/06 14:05:36;;;;;;;0.00;0.00;;;;;;;;;;10490839;28;20139;-67
2021/10/06 14:10:40;;;;;;;0.00;0.00;;;;;;;;;;10495136;28;20417;-67
2021/10/06 14:15:42;;;;;;;0.00;0.00;;;;;;;;;;10493441;28;20044;-69
2021/10/06 14:20:47;;;;;;;0.10;0.10;;;;;;;;;;10485702;28;20043;-65
2021/10/06 14:25:51;;;;;;;0.10;0.10;;;;;;;;;;10479121;28;20064;-65
2021/10/06 14:30:54;;;;;;;0.00;0.00;;;;;;;;;;10481343;28;20125;-66
2021/10/06 14:35:58;;;;;;;0.00;0.00;;;;;;;;;;10475315;28;20206;-65
2021/10/06 14:41:02;;;;;;;0.08;0.08;;;;;;;;;;10480587;28;20103;-66
2021/10/06 14:46:09;;;;;;;0.10;0.10;;;;;;;;;;10473194;28;20897;-64
2021/10/06 14:51:15;;;;;;;0.10;0.10;;;;;;;;;;10475384;28;20059;-64
2021/10/06 14:56:18;;;;;;;0.00;0.00;;;;;;;;;;10473834;28;20055;-64
2021/10/06 15:01:21;;;;;;;0.10;0.10;;;;;;;;;;10482664;28;20572;-64
2021/10/06 15:06:25;;;;;;;0.10;0.10;;;;;;;;;;10497520;28;20153;-64
2021/10/06 15:11:29;;;;;;;0.10;0.10;;;;;;;;;;10475837;28;20045;-64
2021/10/06 15:16:32;;;;;;;0.00;0.00;;;;;;;;;;10493734;28;20036;-66
2021/10/06 15:21:36;;;;;;;0.10;0.10;;;;;;;;;;10487888;28;20041;-65
2021/10/06 15:26:39;;;;;;;0.05;0.05;;;;;;;;;;10486417;28;20040;-64
2021/10/06 15:31:42;;;;;;;0.00;0.00;;;;;;;;;;10484499;28;20046;-64
2021/10/06 15:36:46;;;;;;;0.10;0.10;;;;;;;;;;10461619;28;20086;-63
2021/10/06 15:41:52;;;;;;;0.10;0.10;;;;;;;;;;10479323;28;20047;-65
2021/10/06 15:46:54;;;;;;;0.03;0.03;;;;;;;;;;10477234;28;20063;-63
2021/10/06 15:51:58;;;;;;;0.17;0.03;;;;;;;;;;10487111;28;20052;-63
2021/10/06 15:57:02;;;;;;;0.00;0.00;;;;;;;;;;10484664;28;20056;-63
2021/10/06 16:02:05;;;;;;;0.00;0.00;;;;;;;;;;10467507;28;20438;-64
2021/10/06 16:07:10;;;;;;;0.25;0.00;;;;;;;;;;10480078;28;20040;-65
2021/10/06 16:12:13;;;;;;;0.03;0.03;;;;;;;;;;10482691;28;20044;-66
2021/10/06 16:17:15;;;;;;;0.10;0.10;;;;;;;;;;10491491;28;20508;-65
2021/10/06 16:22:20;;;;;;;0.10;0.10;;;;;;;;;;10496266;28;20139;-65
2021/10/06 16:27:22;;;;;;;0.10;0.10;;;;;;;;;;10478777;28;20040;-65
2021/10/06 16:32:26;;;;;;;0.10;0.10;;;;;;;;;;10479517;28;20056;-64
2021/10/06 16:37:30;;;;;;;0.05;0.05;;;;;;;;;;10482486;28;20419;-66
2021/10/06 16:42:34;;;;;;;0.10;0.10;;;;;;;;;;10483579;28;20048;-65
2021/10/06 16:47:37;;;;;;;0.05;0.05;;;;;;;;;;10484218;28;20098;-65
2021/10/06 16:52:41;;;;;;;0.00;0.00;;;;;;;;;;10475694;28;20055;-64
2021/10/06 16:57:44;;;;;;;0.05;0.05;;;;;;;;;;10490104;28;20047;-65
2021/10/06 17:02:48;;;;;;;0.00;0.00;;;;;;;;;;10468563;28;20051;-66
2021/10/06 17:07:54;;;;;;;0.00;0.00;;;;;;;;;;10486008;28;20494;-66
2021/10/06 17:12:58;;;;;;;0.10;0.10;;;;;;;;;;10488057;28;20044;-64
2021/10/06 17:18:02;;;;;;;0.00;0.00;;;;;;;;;;10463042;28;20110;-64
2021/10/06 17:23:06;;;;;;;0.10;0.10;;;;;;;;;;10443702;28;20056;-65
2021/10/06 17:28:09;;;;;;;0.10;0.10;;;;;;;;;;10457926;28;20105;-65
2021/10/06 17:33:12;;;;;;;0.00;0.00;;;;;;;;;;10493295;28;20052;-63
2021/10/06 17:38:16;;;;;;;0.10;0.10;;;;;;;;;;10491805;28;20040;-64
2021/10/06 17:43:19;;;;;;;0.10;0.10;;;;;;;;;;10487516;28;20040;-65
2021/10/06 17:48:22;;;;;;;0.10;0.10;;;;;;;;;;10495334;28;20036;-65
2021/10/06 17:53:27;;;;;;;0.10;0.10;;;;;;;;;;10491515;28;20044;-68
2021/10/06 17:58:31;;;;;;;0.10;0.10;;;;;;;;;;10495841;28;20051;-64
2021/10/06 18:03:36;;;;;;;0.10;0.10;;;;;;;;;;10499291;28;20124;-66
2021/10/06 18:08:43;;;;;;;0.10;0.10;;;;;;;;;;10487455;28;20052;-70
2021/10/06 18:13:46;;;;;;;0.10;0.10;;;;;;;;;;10462516;28;20072;-68
2021/10/06 18:18:49;;;;;;;0.10;0.10;;;;;;;;;;10474438;28;20048;-66
2021/10/06 18:23:53;;;;;;;0.10;0.10;;;;;;;;;;10497157;28;20045;-71
2021/10/06 18:28:56;;;;;;;0.10;0.10;;;;;;;;;;10478792;28;20534;-65
2021/10/06 18:34:01;;;;;;;0.10;0.10;;;;;;;;;;10486306;28;20047;-67
2021/10/06 18:39:05;;;;;;;0.10;0.10;;;;;;;;;;10464170;28;20154;-67
2021/10/06 18:44:08;;;;;;;0.10;0.10;;;;;;;;;;10491953;28;20047;-66
2021/10/06 18:49:11;;;;;;;0.10;0.10;;;;;;;;;;10480159;28;20478;-67
2021/10/06 18:54:27;;;;;;;0.10;0.10;;;;;;;;;;10499047;28;20034;-68
2021/10/06 18:59:31;;;;;;;0.10;0.10;;;;;;;;;;10492236;28;20040;-66
2021/10/06 19:04:35;;;;;;;0.10;0.10;;;;;;;;;;10486830;28;20056;-67
2021/10/06 19:09:39;;;;;;;0.10;0.10;;;;;;;;;;10488919;28;20163;-68
2021/10/06 19:14:46;;;;;;;0.10;0.10;;;;;;;;;;10490925;28;20040;-67
2021/10/06 19:19:49;;;;;;;0.10;0.10;;;;;;;;;;10499209;28;20045;-68
2021/10/06 19:24:54;;;;;;;0.10;0.10;;;;;;;;;;10498175;28;20051;-68
2021/10/06 19:29:57;;;;;;;0.10;0.10;;;;;;;;;;10492997;28;20039;-68
2021/10/06 19:34:59;;;;;;;0.10;0.10;;;;;;;;;;10483316;28;20044;-67
2021/10/06 19:40:04;;;;;;;0.10;0.10;;;;;;;;;;10500844;28;20049;-67
2021/10/06 19:45:08;;;;;;;0.10;0.10;;;;;;;;;;10493400;28;20039;-67
2021/10/06 19:50:11;;;;;;;0.10;0.10;;;;;;;;;;10483679;28;20044;-68
2021/10/06 19:55:16;;;;;;;0.10;0.10;;;;;;;;;;10464395;28;20054;-68
2021/10/06 20:00:24;;;;;;;0.10;0.10;;;;;;;;;;10490967;28;20092;-71
2021/10/06 20:05:27;;;;;;;0.10;0.10;;;;;;;;;;10502875;28;20045;-71
2021/10/06 20:10:31;;;;;;;0.10;0.10;;;;;;;;;;10489174;28;20080;-70
2021/10/06 20:15:34;;;;;;;0.10;0.10;;;;;;;;;;10483163;28;20097;-70
2021/10/06 20:20:36;;;;;;;0.10;0.10;;;;;;;;;;10478382;28;20037;-70
2021/10/06 20:25:40;;;;;;;0.10;0.10;;;;;;;;;;10491479;28;20051;-70
2021/10/06 20:30:43;;;;;;;0.10;0.10;;;;;;;;;;10476672;28;20486;-69
2021/10/06 20:35:50;;;;;;;0.10;0.10;;;;;;;;;;10475911;28;20039;-69
2021/10/06 20:40:55;;;;;;;0.10;0.10;;;;;;;;;;10482206;28;20041;-69
2021/10/06 20:45:58;;;;;;;0.10;0.10;;;;;;;;;;10481010;28;20045;-69
2021/10/06 20:51:01;;;;;;;0.10;0.10;;;;;;;;;;10489881;28;20139;-70
2021/10/06 20:56:05;;;;;;;0.10;0.10;;;;;;;;;;10475853;28;20044;-69
2021/10/06 21:01:11;;;;;;;0.10;0.10;;;;;;;;;;10510492;28;20036;-69
2021/10/06 21:06:14;;;;;;;0.08;0.08;;;;;;;;;;10493384;28;20044;-70
2021/10/06 21:11:24;;;;;;;0.10;0.10;;;;;;;;;;10479068;28;20062;-69
2021/10/06 21:16:27;;;;;;;0.10;0.10;;;;;;;;;;10492587;28;20040;-69
2021/10/06 21:21:31;;;;;;;0.10;0.10;;;;;;;;;;10492852;28;20039;-70
2021/10/06 21:26:35;;;;;;;0.10;0.10;;;;;;;;;;10497443;28;20037;-69
2021/10/06 21:31:40;;;;;;;0.10;0.10;;;;;;;;;;10491080;28;20036;-69
2021/10/06 21:36:45;;;;;;;0.10;0.10;;;;;;;;;;10475868;28;20044;-69
2021/10/06 21:41:50;;;;;;;0.10;0.10;;;;;;;;;;10487944;28;20101;-69
2021/10/06 21:46:53;;;;;;;0.17;0.17;;;;;;;;;;10500513;28;20044;-69
2021/10/06 21:51:56;;;;;;;0.10;0.10;;;;;;;;;;10491305;28;20626;-69
2021/10/06 21:57:00;;;;;;;0.10;0.10;;;;;;;;;;10496352;28;20035;-69
2021/10/06 22:02:04;;;;;;;0.10;0.10;;;;;;;;;;10481291;28;20044;-69
2021/10/06 22:07:07;;;;;;;0.10;0.10;;;;;;;;;;10456220;28;20053;-69
2021/10/06 22:12:11;;;;;;;0.10;0.10;;;;;;;;;;10436764;28;20052;-69
2021/10/06 22:17:14;;;;;;;0.10;0.10;;;;;;;;;;10462041;28;20048;-69
2021/10/06 22:22:18;;;;;;;0.10;0.10;;;;;;;;;;10477119;28;20071;-69
2021/10/06 22:27:23;;;;;;;0.10;0.10;;;;;;;;;;10482755;28;20048;-69
2021/10/06 22:32:26;;;;;;;0.10;0.10;;;;;;;;;;10481134;28;20048;-69
2021/10/06 22:37:29;;;;;;;0.10;0.10;;;;;;;;;;10481429;28;20050;-69
2021/10/06 22:42:35;;;;;;;0.10;0.10;;;;;;;;;;10476076;28;20045;-69
2021/10/06 22:47:39;;;;;;;0.10;0.10;;;;;;;;;;10482940;28;20036;-69
2021/10/06 22:52:43;;;;;;;0.17;0.17;;;;;;;;;;10483242;28;20051;-69
2021/10/06 22:57:49;;;;;;;0.17;0.17;;;;;;;;;;10487676;28;20059;-69
2021/10/06 23:02:58;;;;;;;0.10;0.10;;;;;;;;;;10481621;28;20419;-69
2021/10/06 23:08:01;;;;;;;0.10;0.10;;;;;;;;;;10488834;28;20472;-69
2021/10/06 23:13:06;;;;;;;0.10;0.10;;;;;;;;;;10492761;28;20048;-69
2021/10/06 23:18:09;;;;;;;0.10;0.10;;;;;;;;;;10464750;28;20067;-69
2021/10/06 23:23:12;;;;;;;0.10;0.10;;;;;;;;;;10473230;28;20094;-69
2021/10/06 23:28:16;;;;;;;0.10;0.10;;;;;;;;;;10497793;28;20041;-69
2021/10/06 23:33:19;;;;;;;0.20;0.20;;;;;;;;;;10486778;28;20043;-69
2021/10/06 23:38:22;;;;;;;0.10;0.10;;;;;;;;;;10491859;28;20505;-69
2021/10/06 23:43:26;;;;;;;0.20;0.20;;;;;;;;;;10491322;28;20044;-69
2021/10/06 23:48:30;;;;;;;0.20;0.20;;;;;;;;;;10491498;28;20056;-69
2021/10/06 23:53:32;;;;;;;0.20;0.20;;;;;;;;;;10484398;28;20033;-69
2021/10/06 23:58:36;;;;;;;0.10;0.10;;;;;;;;;;10484068;28;20035;-68
